Time;durP1;ratioP1;P1;durP2;ratioP2;P2;SDS_P1;SDS_P2;PMS_P1;PMS_P2;Temp;Humidity;BMP_temperature;BMP_pressure;BME280_temperature;BME280_humidity;BME280_pressure;Samples;Min_cycle;Max_cycle;Signal;HPM_P1;HPM_P2
2022/05/02 00:01:43;;;;;;;7.13;6.38;;;;;;;;;;6169002;23;20016;-91
2022/05/02 00:04:09;;;;;;;7.57;6.07;;;;;;;;;;6170596;23;20024;-91
2022/05/02 00:06:35;;;;;;;9.35;6.93;;;;;;;;;;6169692;23;20016;-91
2022/05/02 00:09:01;;;;;;;11.63;7.35;;;;;;;;;;6167433;23;20055;-91
2022/05/02 00:11:27;;;;;;;8.65;6.03;;;;;;;;;;6170100;23;20020;-89
2022/05/02 00:13:53;;;;;;;8.40;6.13;;;;;;;;;;6168199;23;20009;-90
2022/05/02 00:16:22;;;;;;;8.73;6.15;;;;;;;;;;6193575;23;20450;-90
2022/05/02 00:18:48;;;;;;;10.05;7.00;;;;;;;;;;6167246;23;20021;-90
2022/05/02 00:21:14;;;;;;;7.97;6.55;;;;;;;;;;6194220;23;20454;-90
2022/05/02 00:23:41;;;;;;;8.30;7.10;;;;;;;;;;6169161;23;20016;-92
2022/05/02 00:26:07;;;;;;;8.07;6.95;;;;;;;;;;6169100;23;20099;-90
2022/05/02 00:28:33;;;;;;;9.00;6.72;;;;;;;;;;6170519;23;20016;-91
2022/05/02 00:30:59;;;;;;;15.57;6.78;;;;;;;;;;6168140;23;20453;-89
2022/05/02 00:33:25;;;;;;;10.27;7.70;;;;;;;;;;6196837;23;20040;-89
2022/05/02 00:35:51;;;;;;;10.10;6.50;;;;;;;;;;6196117;23;20100;-90
2022/05/02 00:38:17;;;;;;;11.55;7.22;;;;;;;;;;6170969;23;20016;-89
2022/05/02 00:40:43;;;;;;;10.40;8.07;;;;;;;;;;6170981;23;20017;-89
2022/05/02 00:43:09;;;;;;;10.70;7.45;;;;;;;;;;6171277;23;20016;-89
2022/05/02 00:45:37;;;;;;;8.43;7.20;;;;;;;;;;6197001;23;20056;-88
2022/05/02 00:48:03;;;;;;;10.57;7.95;;;;;;;;;;6153718;23;20024;-89
2022/05/02 00:50:40;;;;;;;9.90;7.45;;;;;;;;;;6141006;23;20024;-90
2022/05/02 00:53:09;;;;;;;10.10;7.80;;;;;;;;;;6166544;23;20024;-89
2022/05/02 00:55:37;;;;;;;12.23;7.57;;;;;;;;;;6140691;23;20017;-90
2022/05/02 00:58:04;;;;;;;7.88;7.07;;;;;;;;;;6141277;23;20013;-90
2022/05/02 01:00:30;;;;;;;12.35;6.57;;;;;;;;;;6141709;23;20021;-90
2022/05/02 01:02:57;;;;;;;8.45;6.25;;;;;;;;;;6140270;23;20013;-90
2022/05/02 01:05:24;;;;;;;7.45;6.50;;;;;;;;;;6140287;23;20023;-90
2022/05/02 01:07:50;;;;;;;6.90;5.85;;;;;;;;;;6139318;23;20017;-89
2022/05/02 01:10:19;;;;;;;5.88;4.60;;;;;;;;;;6140643;23;20021;-89
2022/05/02 01:12:46;;;;;;;4.03;3.63;;;;;;;;;;6140508;23;20017;-90
2022/05/02 01:15:13;;;;;;;4.75;4.25;;;;;;;;;;6139960;23;20332;-89
2022/05/02 01:17:39;;;;;;;7.13;3.83;;;;;;;;;;6140764;23;20021;-89
2022/05/02 01:20:09;;;;;;;5.80;4.13;;;;;;;;;;6164642;23;20021;-90
2022/05/02 01:22:35;;;;;;;5.10;4.60;;;;;;;;;;6139798;23;20036;-89
2022/05/02 01:25:01;;;;;;;5.25;4.30;;;;;;;;;;6139376;23;20073;-89
2022/05/02 01:27:27;;;;;;;5.45;4.70;;;;;;;;;;6139477;23;20021;-90
2022/05/02 01:29:53;;;;;;;8.65;6.47;;;;;;;;;;6140202;23;20350;-89
2022/05/02 01:32:19;;;;;;;6.70;5.85;;;;;;;;;;6139128;23;20074;-89
2022/05/02 01:34:45;;;;;;;8.88;6.10;;;;;;;;;;6139233;23;20091;-91
2022/05/02 01:37:13;;;;;;;7.40;6.10;;;;;;;;;;6140735;23;20024;-90
2022/05/02 01:39:39;;;;;;;8.00;5.60;;;;;;;;;;6140167;23;20044;-90
2022/05/02 01:42:08;;;;;;;6.60;5.07;;;;;;;;;;6140038;23;20017;-90
2022/05/02 01:44:34;;;;;;;6.57;4.88;;;;;;;;;;6139985;23;20017;-90
2022/05/02 01:47:00;;;;;;;7.60;6.05;;;;;;;;;;6146620;23;20025;-89
2022/05/02 01:49:26;;;;;;;14.25;7.68;;;;;;;;;;6170233;23;20017;-90
2022/05/02 01:51:53;;;;;;;5.82;5.20;;;;;;;;;;6168821;23;20099;-89
2022/05/02 01:54:19;;;;;;;5.13;4.35;;;;;;;;;;6168954;23;20064;-88
2022/05/02 01:56:45;;;;;;;4.82;4.35;;;;;;;;;;6169970;23;20016;-90
2022/05/02 01:59:11;;;;;;;6.15;5.18;;;;;;;;;;6169783;23;20034;-90
2022/05/02 02:01:38;;;;;;;6.10;5.18;;;;;;;;;;6170112;23;20021;-88
2022/05/02 02:06:51;;;;;;;8.45;5.00;;;;;;;;;;6075286;23;20050;-90
2022/05/02 02:09:17;;;;;;;7.07;5.45;;;;;;;;;;6074650;23;20018;-91
2022/05/02 02:11:43;;;;;;;8.38;5.35;;;;;;;;;;6074701;23;20022;-88
2022/05/02 02:14:10;;;;;;;6.50;4.80;;;;;;;;;;6049710;23;20019;-89
2022/05/02 02:16:36;;;;;;;6.40;4.75;;;;;;;;;;6075592;23;20022;-90
2022/05/02 02:19:02;;;;;;;8.10;5.60;;;;;;;;;;6074613;23;20047;-89
2022/05/02 02:21:28;;;;;;;6.72;5.22;;;;;;;;;;6051516;23;20026;-89
2022/05/02 02:23:54;;;;;;;4.45;3.60;;;;;;;;;;6051179;23;20018;-91
2022/05/02 02:26:20;;;;;;;3.42;3.10;;;;;;;;;;6052978;23;20042;-90
2022/05/02 02:28:46;;;;;;;4.28;3.28;;;;;;;;;;6051211;23;20486;-90
2022/05/02 02:31:12;;;;;;;3.63;3.33;;;;;;;;;;6051701;23;20054;-89
2022/05/02 02:33:39;;;;;;;4.07;3.50;;;;;;;;;;6050637;23;20032;-89
2022/05/02 02:36:05;;;;;;;6.07;3.08;;;;;;;;;;6050820;23;20045;-88
2022/05/02 02:38:31;;;;;;;3.80;3.38;;;;;;;;;;6052017;23;20019;-90
2022/05/02 02:40:57;;;;;;;4.30;3.78;;;;;;;;;;6050809;23;20022;-89
2022/05/02 02:43:23;;;;;;;4.25;3.42;;;;;;;;;;6078431;23;20450;-89
2022/05/02 02:45:49;;;;;;;4.60;3.88;;;;;;;;;;6185866;23;20021;-89
2022/05/02 02:48:15;;;;;;;7.13;4.40;;;;;;;;;;6192971;23;20017;-89
2022/05/02 02:50:41;;;;;;;5.40;4.65;;;;;;;;;;6169443;23;20031;-89
2022/05/02 02:53:07;;;;;;;5.35;4.85;;;;;;;;;;6169212;23;20060;-90
2022/05/02 02:55:34;;;;;;;5.00;4.50;;;;;;;;;;6168306;23;20063;-89
2022/05/02 02:58:00;;;;;;;7.63;3.75;;;;;;;;;;6170021;23;20013;-90
2022/05/02 03:00:26;;;;;;;4.45;3.97;;;;;;;;;;6170092;23;20021;-89
2022/05/02 03:02:53;;;;;;;4.88;3.33;;;;;;;;;;6169695;23;20036;-89
2022/05/02 03:08:04;;;;;;;6.18;3.83;;;;;;;;;;6193170;23;20016;-88
2022/05/02 03:10:30;;;;;;;5.95;3.83;;;;;;;;;;6169550;23;20020;-88
2022/05/02 03:12:56;;;;;;;7.15;4.28;;;;;;;;;;6168408;23;20013;-89
2022/05/02 03:15:22;;;;;;;4.30;3.90;;;;;;;;;;6171508;23;20024;-90
2022/05/02 03:17:49;;;;;;;4.43;3.67;;;;;;;;;;6193912;23;20078;-89
2022/05/02 03:20:15;;;;;;;6.85;4.97;;;;;;;;;;6169767;23;20020;-89
2022/05/02 03:22:41;;;;;;;9.02;5.63;;;;;;;;;;6168210;23;20008;-89
2022/05/02 03:25:07;;;;;;;6.57;4.15;;;;;;;;;;6169475;23;20027;-89
2022/05/02 03:27:33;;;;;;;5.63;4.28;;;;;;;;;;6169584;23;20009;-88
2022/05/02 03:30:00;;;;;;;4.97;3.47;;;;;;;;;;6168299;23;20021;-88
2022/05/02 03:32:26;;;;;;;3.83;3.38;;;;;;;;;;6168408;23;20088;-89
2022/05/02 03:34:52;;;;;;;2.97;2.67;;;;;;;;;;6168218;23;20023;-90
2022/05/02 03:37:18;;;;;;;2.40;2.20;;;;;;;;;;6195146;23;20060;-90
2022/05/02 03:39:44;;;;;;;2.95;2.60;;;;;;;;;;6169612;23;20009;-89
2022/05/02 03:42:10;;;;;;;3.83;3.05;;;;;;;;;;6167939;23;20139;-90
2022/05/02 03:44:36;;;;;;;4.15;2.88;;;;;;;;;;6169384;23;20017;-90
2022/05/02 03:47:02;;;;;;;4.45;3.33;;;;;;;;;;6169456;23;20019;-89
2022/05/02 03:49:28;;;;;;;8.32;3.60;;;;;;;;;;6167958;23;20055;-90
2022/05/02 03:51:54;;;;;;;5.78;4.03;;;;;;;;;;6193692;23;20017;-90
2022/05/02 03:54:20;;;;;;;7.05;3.90;;;;;;;;;;6169387;23;20017;-90
2022/05/02 03:56:46;;;;;;;10.15;4.32;;;;;;;;;;6167765;23;20140;-90
2022/05/02 03:59:13;;;;;;;5.05;4.05;;;;;;;;;;6170382;23;20454;-90
2022/05/02 04:01:40;;;;;;;6.65;4.72;;;;;;;;;;6169735;23;20017;-90
2022/05/02 04:04:06;;;;;;;4.63;3.83;;;;;;;;;;6168948;23;20017;-90
2022/05/02 04:06:32;;;;;;;7.55;3.22;;;;;;;;;;6169817;23;20016;-90
2022/05/02 04:08:59;;;;;;;3.72;3.33;;;;;;;;;;6169023;23;20028;-90
2022/05/02 04:11:25;;;;;;;31.63;5.25;;;;;;;;;;6169034;23;20027;-89
2022/05/02 04:13:51;;;;;;;12.65;4.68;;;;;;;;;;6169012;23;20044;-90
2022/05/02 04:16:17;;;;;;;7.65;5.30;;;;;;;;;;6169585;23;20017;-90
2022/05/02 04:18:45;;;;;;;22.33;5.53;;;;;;;;;;6195327;23;20392;-90
2022/05/02 04:21:11;;;;;;;5.97;4.35;;;;;;;;;;6169036;23;20020;-90
2022/05/02 04:23:37;;;;;;;7.28;5.82;;;;;;;;;;6167995;23;20518;-90
2022/05/02 04:26:04;;;;;;;8.13;4.72;;;;;;;;;;6169435;23;20027;-90
2022/05/02 04:28:30;;;;;;;5.82;4.47;;;;;;;;;;6168754;23;20016;-88
2022/05/02 04:30:56;;;;;;;4.18;3.65;;;;;;;;;;6170519;23;20103;-89
2022/05/02 04:33:23;;;;;;;6.10;4.82;;;;;;;;;;6170895;23;20083;-89
2022/05/02 04:35:50;;;;;;;10.02;5.35;;;;;;;;;;6171065;23;20021;-90
2022/05/02 04:38:20;;;;;;;38.22;9.32;;;;;;;;;;6219417;23;20446;-89
2022/05/02 04:40:46;;;;;;;18.13;6.65;;;;;;;;;;6171746;23;20040;-90
2022/05/02 04:43:13;;;;;;;35.78;6.88;;;;;;;;;;6167350;23;20024;-90
2022/05/02 04:45:39;;;;;;;27.83;6.30;;;;;;;;;;6193696;23;20020;-90
2022/05/02 04:48:06;;;;;;;7.43;5.40;;;;;;;;;;6175385;23;20016;-89
2022/05/02 04:50:32;;;;;;;11.27;6.68;;;;;;;;;;6176668;23;20044;-88
2022/05/02 04:52:58;;;;;;;10.43;5.78;;;;;;;;;;6179613;23;20016;-88
2022/05/02 04:55:24;;;;;;;6.30;5.70;;;;;;;;;;6179718;23;20024;-89
2022/05/02 04:57:50;;;;;;;9.57;5.68;;;;;;;;;;6178640;23;20016;-88
2022/05/02 05:00:16;;;;;;;7.63;6.68;;;;;;;;;;6176552;23;20020;-89
2022/05/02 05:02:42;;;;;;;7.10;5.57;;;;;;;;;;6201053;23;20087;-90
2022/05/02 05:05:10;;;;;;;8.45;7.07;;;;;;;;;;6178155;23;20075;-88
2022/05/02 05:07:37;;;;;;;12.85;7.75;;;;;;;;;;6178852;23;20016;-89
2022/05/02 05:10:03;;;;;;;10.10;7.40;;;;;;;;;;6170438;23;20028;-89
2022/05/02 05:12:34;;;;;;;11.55;8.27;;;;;;;;;;6169863;23;20099;-91
2022/05/02 05:18:07;;;;;;;11.02;8.38;;;;;;;;;;6193312;23;20052;-90
2022/05/02 05:20:36;;;;;;;10.23;8.05;;;;;;;;;;6170097;23;20021;-89
2022/05/02 05:23:21;;;;;;;13.02;8.48;;;;;;;;;;6170751;23;20342;-89
2022/05/02 05:25:50;;;;;;;10.65;7.93;;;;;;;;;;6171631;23;20036;-90
2022/05/02 05:29:08;;;;;;;6.95;6.15;;;4.00;99.90;;;;;;6172187;23;20023;-91
2022/05/02 05:31:52;;;;;;;9.40;7.07;;;;;;;;;;6073399;23;20054;-91
2022/05/02 05:34:27;;;;;;;10.98;7.15;;;;;;;;;;6024175;23;20034;-92
2022/05/02 05:36:53;;;;;;;8.57;7.20;;;;;;;;;;6025469;23;20023;-91
2022/05/02 05:39:27;;;;;;;8.63;7.05;;;;;;;;;;6026175;23;20023;-91
2022/05/02 05:42:10;;;;;;;9.70;6.30;;;;;;;;;;6026259;23;20017;-92
2022/05/02 05:44:44;;;;;;;10.98;8.82;;;;;;;;;;6025025;23;20029;-90
2022/05/02 05:47:10;;;;;;;11.38;7.93;;;;;;;;;;6025569;23;20022;-90
2022/05/02 05:50:02;;;;;;;12.85;8.88;;;;;;;;;;6049095;23;20027;-92
2022/05/02 05:55:35;;;;;;;13.73;8.98;;;;;;;;;;6049875;23;20031;-91
2022/05/02 05:58:30;;;;;;;12.82;9.75;;;;;;;;;;6026668;23;20019;-92
2022/05/02 06:01:21;;;;;;;14.13;10.10;;;;;;;;;;6026960;23;20046;-92
2022/05/02 06:04:10;;;;;;;21.73;10.52;;;;;;;;;;6049123;23;20022;-92
2022/05/02 06:06:55;;;;;;;17.00;11.75;;;;;;;;;;6049717;23;20488;-92
2022/05/02 06:09:34;;;;;;;16.92;11.90;;;;;;;;;;6211699;23;20020;-91
2022/05/02 06:12:07;;;;;;;19.98;11.95;;;;;;;;;;6172132;23;20066;-93
2022/05/02 06:18:27;;;;;;;17.90;11.00;;;;;;;;;;6170810;23;20027;-92
2022/05/02 06:20:34;;;;;;;15.60;10.63;;;;;;;;;;6198245;23;20020;-92
2022/05/02 06:23:13;;;;;;;14.07;11.52;;;;;;;;;;6171451;23;20031;-91
2022/05/02 06:25:51;;;;;;;16.15;11.30;;;;;;;;;;6172915;23;20023;-91
2022/05/02 06:28:23;;;;;;;17.98;11.93;;;;;;;;;;6172202;23;20032;-92
2022/05/02 06:33:41;;;;;;;19.17;11.50;;;;;;;;;;6197564;23;20056;-91
2022/05/02 06:36:10;;;;;;;16.98;11.52;;;;;;;;;;6170170;23;20081;-91
2022/05/02 06:38:43;;;;;;;16.35;12.00;;;;;;;;;;6169054;23;20091;-92
2022/05/02 06:41:22;;;;;;;17.33;11.97;;;;;;;;;;6168015;23;20021;-93
2022/05/02 06:43:51;;;;;;;19.08;11.57;;;;;;;;;;6168285;23;20142;-92
2022/05/02 06:46:19;;;;;;;17.88;11.50;;;;;;;;;;6167116;23;20012;-92
2022/05/02 06:48:48;;;;;;;17.20;11.30;;;;;;;;;;6167093;23;20020;-92
2022/05/02 06:51:24;;;;;;;18.27;11.38;;;;;;;;;;6167915;23;20013;-92
2022/05/02 06:54:13;;;;;;;13.48;10.18;;;;;;;;;;6168223;23;20439;-92
2022/05/02 06:56:43;;;;;;;13.05;10.65;;;;;;;;;;6167361;23;20079;-93
2022/05/02 06:59:18;;;;;;;13.98;10.40;;;;;;;;;;6168073;23;20016;-93
2022/05/02 07:01:45;;;;;;;13.23;9.75;;;;;;;;;;6167184;23;20060;-92
2022/05/02 07:04:23;;;;;;;11.75;8.80;;;;;;;;;;6193753;23;20023;-94
2022/05/02 07:07:11;;;;;;;12.43;8.07;;;;;;;;;;6168494;23;20027;-93
2022/05/02 07:09:44;;;;;;;10.07;7.90;;;;;;;;;;6192942;23;20022;-93
2022/05/02 07:12:15;;;;;;;15.23;8.20;;;;;;;;;;6168195;23;20016;-94
2022/05/02 07:14:41;;;;;;;14.07;8.65;;;;;;;;;;6168727;23;20457;-94
2022/05/02 07:17:13;;;;;;;15.50;8.65;;;;;;;;;;6169103;23;20016;-92
2022/05/02 07:19:55;;;;;;;12.73;8.15;;;;;;;;;;6169239;23;20047;-94
2022/05/02 07:22:32;;;;;;;12.50;8.18;;;;;;;;;;6168081;23;20438;-93
2022/05/02 07:25:11;;;;;;;10.95;8.65;;;;;;;;;;6166582;23;20358;-92
2022/05/02 07:27:58;;;;;;;11.80;8.45;;;;;;;;;;6166639;23;20488;-93
2022/05/02 07:30:27;;;;;;;11.07;9.10;;;;;;;;;;6156377;23;20568;-94
2022/05/02 07:35:31;;;;;;;13.77;9.15;;;;;;;;;;6221062;23;20083;-93
2022/05/02 18:54:54;;;;;;;;;;;;;;;;;;;;;
2022/05/02 18:57:41;;;;;;;4.18;2.13;;;;;;;;;;6199292;22;20025;-94
2022/05/02 19:00:47;;;;;;;2.08;1.85;;;;;;;;;;6026362;23;20038;-94
2022/05/02 19:13:19;;;;;;;;;;;;;;;;;;;;;
2022/05/02 19:16:34;;;;;;;2.88;2.53;;;;;;;;;;5778653;24;20067;-94
2022/05/02 19:19:44;;;;;;;;;;;;;;;;;;;;;
2022/05/02 19:22:27;;;;;;;6.30;2.25;;;;;;;;;;5780274;24;20136;-93
2022/05/02 19:25:24;;;;;;;4.78;2.60;;;;;;;;;;5778832;24;20058;-95
2022/05/02 19:28:13;;;;;;;4.80;2.97;;;;;;;;;;5804209;24;20031;-93
2022/05/02 19:33:35;;;;;;;5.75;3.22;;;;;;;;;;6205340;22;20088;-92
2022/05/02 19:42:48;;;;;;;;;;;;;;;;;;;;;
2022/05/02 19:46:05;;;;;;;3.17;2.65;;;;;;;;;;6198599;23;20093;-91
2022/05/02 19:51:17;;;;;;;4.10;2.50;;;;;;;;;;6192590;23;20029;-91
2022/05/02 19:53:53;;;;;;;8.27;3.35;;;;;;;;;;6179085;23;20059;-91
2022/05/02 19:56:25;;;;;;;5.90;3.20;;;;;;;;;;6158586;23;20081;-93
2022/05/02 19:58:52;;;;;;;3.78;3.17;;;;;;;;;;6206722;23;20025;-92
2022/05/02 20:04:34;;;;;;;6.82;3.08;;;;;;;;;;6117651;23;20022;-93
2022/05/02 20:07:03;;;;;;;5.40;3.22;;;;;;;;;;6094218;23;20051;-94
2022/05/02 20:09:42;;;;;;;4.22;3.35;;;;;;;;;;6114743;23;20021;-93
2022/05/02 20:12:14;;;;;;;5.90;3.40;;;;;;;;;;6142987;23;20546;-93
2022/05/02 20:14:41;;;;;;;4.10;3.65;;;;;;;;;;6170343;23;20327;-92
2022/05/02 20:17:12;;;;;;;4.78;3.75;;;;;;;;;;6168629;23;20048;-94
2022/05/02 20:19:47;;;;;;;4.35;3.60;;;;;;;;;;6214561;22;20020;-92
2022/05/02 20:22:23;;;;;;;4.90;3.78;;;;;;;;;;6220390;23;20043;-93
2022/05/02 20:25:11;;;;;;;4.05;3.30;;;;;;;;;;6200050;23;20021;-93
2022/05/02 20:27:46;;;;;;;4.47;3.42;;;;;;;;;;6199176;23;20017;-91
2022/05/02 20:30:15;;;;;;;4.25;3.85;;;;;;;;;;6199972;23;20040;-92
2022/05/02 20:38:34;;;;;;;5.18;3.60;;;;;;;;;;6224086;23;20076;-92
2022/05/02 20:41:05;;;;;;;3.83;3.42;;;;;;;;;;6175405;23;20434;-93
2022/05/02 20:43:43;;;;;;;5.50;3.65;;;;;;;;;;6200267;23;20070;-91
2022/05/02 20:46:11;;;;;;;3.45;2.97;;;;;;;;;;6199961;23;20024;-92
2022/05/02 20:48:43;;;;;;;4.85;3.95;;;;;;;;;;6199445;23;20047;-92
2022/05/02 20:51:15;;;;;;;7.00;4.28;;;;;;;;;;6227055;23;20016;-91
2022/05/02 20:53:44;;;;;;;8.70;4.60;;;;;;;;;;6200845;23;20027;-92
2022/05/02 20:56:11;;;;;;;7.53;3.67;;;;;;;;;;6200847;23;20024;-92
2022/05/02 20:58:42;;;;;;;5.80;4.25;;;;;;;;;;6200541;23;20020;-91
2022/05/02 21:01:10;;;;;;;6.88;4.13;;;;;;;;;;6201351;23;20072;-92
2022/05/02 21:03:45;;;;;;;9.10;4.80;;;;;;;;;;6203507;23;20016;-93
2022/05/02 21:06:14;;;;;;;7.05;4.70;;;;;;;;;;6200630;23;20021;-93
2022/05/02 21:08:43;;;;;;;6.55;4.72;;;;;;;;;;6200120;23;20024;-93
2022/05/02 21:11:36;;;;;;;5.57;4.43;;;;;;;;;;6199724;23;20024;-92
2022/05/02 21:14:05;;;;;;;8.40;4.38;;;;;;;;;;6199554;23;20023;-93
2022/05/02 21:16:48;;;;;;;;;;;;;;;;;;;;;
2022/05/02 21:20:04;;;;;;;7.20;4.80;;;;;;;;;;6219754;22;20078;-93
2022/05/02 21:26:09;;;;;;;5.90;4.47;;;;;;;;;;6237275;22;20024;-93
2022/05/02 21:31:25;;;;;;;9.13;5.03;;;;;;;;;;6195296;23;20021;-92
2022/05/02 21:34:05;;;;;;;7.32;5.68;;;;;;;;;;6146245;23;20024;-92
2022/05/02 21:37:16;;;;;;;;;;;;;;;;;;;;;
2022/05/02 21:40:03;;;;;;;;;;;;;;;;;;;;;
2022/05/02 21:45:03;;;;;;;5.97;4.28;;;;;;;;;;6255118;22;20020;-92
2022/05/02 21:47:32;;;;;;;6.57;4.18;;;;;;;;;;6229136;23;20024;-92
2022/05/02 21:50:04;;;;;;;5.30;4.40;;;;;;;;;;6165221;23;20019;-92
2022/05/02 21:53:15;;;;;;;5.93;4.13;;;;;;;;;;6141967;23;20027;-94
2022/05/02 21:56:07;;;;;;;8.43;5.03;;;;;;;;;;6144157;23;20017;-93
2022/05/02 21:58:56;;;;;;;7.13;3.47;;;;;;;;;;6143195;23;20017;-92
2022/05/02 22:01:31;;;;;;;7.30;4.50;;;;;;;;;;6141674;23;20032;-93
2022/05/02 22:04:14;;;;;;;5.07;4.30;;;;;;;;;;6142894;23;20067;-93
2022/05/02 22:06:56;;;;;;;4.65;4.18;;;;;;;;;;6142493;23;20013;-92
2022/05/02 22:09:42;;;;;;;4.88;4.25;;;;;;;;;;6143774;23;20076;-92
2022/05/02 22:12:12;;;;;;;4.97;4.38;;;;;;;;;;6176770;23;20397;-92
2022/05/02 22:14:57;;;;;;;5.03;4.40;;;;;;;;;;6199985;23;20128;-94
2022/05/02 22:20:09;;;;;;;5.10;4.32;;;;;;;;;;6192740;23;20025;-91
2022/05/02 22:22:47;;;;;;;7.07;4.55;;;;;;;;;;6142327;23;20051;-92
2022/05/02 22:25:42;;;;;;;4.70;4.30;;;;;;;;;;6153091;23;20021;-91
2022/05/02 22:28:34;;;;;;;9.07;4.97;;;;;;;;;;6210449;23;20005;-93
2022/05/02 22:31:29;;;;;;;6.60;4.63;;;;;;;;;;6195277;23;20016;-92
2022/05/02 22:33:59;;;;;;;6.43;5.03;;;;;;;;;;6083480;23;20041;-93
2022/05/02 22:36:37;;;;;;;5.35;4.78;;;;;;;;;;6133419;23;20062;-91
2022/05/02 22:39:12;;;;;;;7.05;5.55;;;;;;;;;;6107781;23;20014;-92
2022/05/02 22:41:41;;;;;;;6.80;6.10;;;;;;;;;;6106548;23;20104;-93
2022/05/02 22:44:18;;;;;;;8.02;5.38;;;;;;;;;;6108162;23;20018;-92
2022/05/02 22:46:48;;;;;;;6.70;4.78;;;;;;;;;;6107595;23;20014;-92
2022/05/02 22:49:14;;;;;;;6.38;5.68;;;;;;;;;;6107294;23;20022;-90
2022/05/02 22:51:40;;;;;;;8.82;5.03;;;;;;;;;;6108223;23;20077;-92
2022/05/02 22:54:12;;;;;;;8.02;5.60;;;;;;;;;;6163232;23;20022;-92
2022/05/02 22:56:50;;;;;;;7.55;5.47;;;;;;;;;;6161409;23;20026;-92
2022/05/02 22:59:36;;;;;;;6.20;5.22;;;;;;;;;;6161604;23;20024;-92
2022/05/02 23:02:13;;;;;;;7.10;6.15;;;;;;;;;;6184739;23;20029;-92
2022/05/02 23:04:43;;;;;;;5.85;5.25;;;;;;;;;;6163067;23;20324;-90
2022/05/02 23:07:12;;;;;;;7.70;6.43;;;;;;;;;;6164058;23;20028;-92
2022/05/02 23:09:42;;;;;;;5.90;5.30;;;;;;;;;;6162696;23;20020;-93
2022/05/02 23:12:14;;;;;;;6.22;5.47;;;;;;;;;;6161260;23;20018;-91
2022/05/02 23:14:41;;;;;;;8.32;5.82;;;;;;;;;;6137952;23;20056;-92
2022/05/02 23:17:09;;;;;;;6.82;5.88;;;;;;;;;;6161107;23;20063;-93
2022/05/02 23:19:50;;;;;;;7.95;6.13;;;;;;;;;;6138419;23;20020;-91
2022/05/02 23:22:22;;;;;;;;;;;;;;;;;;6162146;23;20021;-92
2022/05/02 23:24:53;;;;;;;4.70;3.92;;;;;;;;;;6114315;23;19992;-92
2022/05/02 23:27:31;;;;;;;4.15;3.72;;;;;;;;;;6137962;23;20320;-92
2022/05/02 23:29:57;;;;;;;4.70;4.10;;;;;;;;;;6139324;23;20014;-91
2022/05/02 23:32:37;;;;;;;5.38;4.88;;;;;;;;;;6136792;23;20459;-93
2022/05/02 23:35:18;;;;;;;5.63;5.13;;;;;;;;;;6137087;23;20018;-92
2022/05/02 23:38:03;;;;;;;6.07;4.90;;;;;;;;;;6162990;23;20040;-93
2022/05/02 23:40:43;;;;;;;4.30;3.78;;;;;;;;;;6160776;23;20016;-92
2022/05/02 23:43:51;;;;;;;4.70;4.05;;;;;;;;;;6139358;23;20032;-92
2022/05/02 23:46:19;;;;;;;9.80;4.60;;;;;;;;;;6160627;23;20024;-92
2022/05/02 23:49:19;;;;;;;7.53;5.03;;;;;;;;;;6137373;23;20387;-92
2022/05/02 23:51:56;;;;;;;4.97;4.57;;;;;;;;;;6160446;23;20037;-91
2022/05/02 23:54:57;;;;;;;5.47;4.85;;;6.80;99.90;;;;;;6137737;23;20017;-91
2022/05/02 23:57:43;;;;;;;;;;;;;;;;;;;;;
